sensor_id;sensor_type;location;lat;lon;timestamp;P1;durP1;ratioP1;P2;durP2;ratioP2
79212;SDS011;68639;52.380;9.822;2023-04-02T00:01:54;15.60;;;5.93;;
79212;SDS011;68639;52.380;9.822;2023-04-02T00:04:20;11.73;;;5.60;;
79212;SDS011;68639;52.380;9.822;2023-04-02T00:06:47;12.80;;;4.77;;
79212;SDS011;68639;52.380;9.822;2023-04-02T00:11:39;15.10;;;5.33;;
79212;SDS011;68639;52.380;9.822;2023-04-02T00:14:12;11.93;;;5.03;;
79212;SDS011;68639;52.380;9.822;2023-04-02T00:16:39;13.57;;;5.63;;
79212;SDS011;68639;52.380;9.822;2023-04-02T00:19:05;14.27;;;4.87;;
79212;SDS011;68639;52.380;9.822;2023-04-02T00:21:33;11.73;;;4.77;;
79212;SDS011;68639;52.380;9.822;2023-04-02T00:24:00;12.37;;;5.23;;
79212;SDS011;68639;52.380;9.822;2023-04-02T00:28:55;10.83;;;4.33;;
79212;SDS011;68639;52.380;9.822;2023-04-02T00:31:20;15.13;;;4.50;;
79212;SDS011;68639;52.380;9.822;2023-04-02T00:33:45;13.03;;;4.77;;
79212;SDS011;68639;52.380;9.822;2023-04-02T00:36:12;12.43;;;4.03;;
79212;SDS011;68639;52.380;9.822;2023-04-02T00:38:37;9.70;;;3.57;;
79212;SDS011;68639;52.380;9.822;2023-04-02T00:41:05;8.70;;;3.80;;
79212;SDS011;68639;52.380;9.822;2023-04-02T00:43:35;9.93;;;3.67;;
79212;SDS011;68639;52.380;9.822;2023-04-02T00:46:02;11.33;;;3.23;;
79212;SDS011;68639;52.380;9.822;2023-04-02T00:50:56;12.33;;;4.10;;
79212;SDS011;68639;52.380;9.822;2023-04-02T00:53:28;14.10;;;3.67;;
79212;SDS011;68639;52.380;9.822;2023-04-02T00:55:54;11.60;;;3.93;;
79212;SDS011;68639;52.380;9.822;2023-04-02T00:58:25;11.63;;;3.23;;
79212;SDS011;68639;52.380;9.822;2023-04-02T01:00:51;8.50;;;3.37;;
79212;SDS011;68639;52.380;9.822;2023-04-02T01:10:49;9.63;;;3.07;;
79212;SDS011;68639;52.380;9.822;2023-04-02T01:31:12;6.70;;;3.10;;
79212;SDS011;68639;52.380;9.822;2023-04-02T01:33:39;7.17;;;2.80;;
79212;SDS011;68639;52.380;9.822;2023-04-02T01:36:21;7.43;;;3.00;;
79212;SDS011;68639;52.380;9.822;2023-04-02T01:38:50;11.20;;;2.70;;
79212;SDS011;68639;52.380;9.822;2023-04-02T01:41:20;13.63;;;3.43;;
79212;SDS011;68639;52.380;9.822;2023-04-02T01:43:55;8.27;;;2.73;;
79212;SDS011;68639;52.380;9.822;2023-04-02T01:48:51;10.93;;;2.93;;
79212;SDS011;68639;52.380;9.822;2023-04-02T01:51:28;8.90;;;3.67;;
79212;SDS011;68639;52.380;9.822;2023-04-02T01:53:54;8.33;;;2.50;;
79212;SDS011;68639;52.380;9.822;2023-04-02T01:56:20;9.47;;;2.63;;
79212;SDS011;68639;52.380;9.822;2023-04-02T01:58:46;6.40;;;2.43;;
79212;SDS011;68639;52.380;9.822;2023-04-02T02:01:14;9.43;;;3.23;;
79212;SDS011;68639;52.380;9.822;2023-04-02T02:03:41;6.13;;;2.40;;
79212;SDS011;68639;52.380;9.822;2023-04-02T02:06:08;5.83;;;2.37;;
79212;SDS011;68639;52.380;9.822;2023-04-02T02:08:39;7.13;;;2.60;;
79212;SDS011;68639;52.380;9.822;2023-04-02T02:11:05;6.20;;;2.20;;
79212;SDS011;68639;52.380;9.822;2023-04-02T02:13:31;7.47;;;2.73;;
79212;SDS011;68639;52.380;9.822;2023-04-02T02:15:59;9.93;;;2.57;;
79212;SDS011;68639;52.380;9.822;2023-04-02T02:18:25;6.43;;;2.30;;
79212;SDS011;68639;52.380;9.822;2023-04-02T02:20:51;7.53;;;2.77;;
79212;SDS011;68639;52.380;9.822;2023-04-02T02:23:17;9.27;;;2.77;;
79212;SDS011;68639;52.380;9.822;2023-04-02T02:25:42;10.53;;;2.73;;
79212;SDS011;68639;52.380;9.822;2023-04-02T02:33:19;9.07;;;2.13;;
79212;SDS011;68639;52.380;9.822;2023-04-02T02:35:51;6.90;;;2.27;;
79212;SDS011;68639;52.380;9.822;2023-04-02T02:40:43;8.83;;;2.43;;
79212;SDS011;68639;52.380;9.822;2023-04-02T02:43:10;6.33;;;2.07;;
79212;SDS011;68639;52.380;9.822;2023-04-02T02:45:37;8.00;;;2.60;;
79212;SDS011;68639;52.380;9.822;2023-04-02T02:48:04;10.67;;;2.33;;
79212;SDS011;68639;52.380;9.822;2023-04-02T02:50:32;5.87;;;2.77;;
79212;SDS011;68639;52.380;9.822;2023-04-02T02:52:59;7.37;;;2.40;;
79212;SDS011;68639;52.380;9.822;2023-04-02T02:55:28;8.70;;;2.50;;
79212;SDS011;68639;52.380;9.822;2023-04-02T03:00:25;8.40;;;2.40;;
79212;SDS011;68639;52.380;9.822;2023-04-02T03:02:50;7.40;;;2.37;;
79212;SDS011;68639;52.380;9.822;2023-04-02T03:05:22;7.93;;;2.50;;
79212;SDS011;68639;52.380;9.822;2023-04-02T03:07:49;11.77;;;2.67;;
79212;SDS011;68639;52.380;9.822;2023-04-02T03:10:24;6.53;;;2.23;;
79212;SDS011;68639;52.380;9.822;2023-04-02T03:13:07;6.87;;;2.37;;
79212;SDS011;68639;52.380;9.822;2023-04-02T03:15:37;8.07;;;2.40;;
79212;SDS011;68639;52.380;9.822;2023-04-02T03:18:05;6.53;;;2.43;;
79212;SDS011;68639;52.380;9.822;2023-04-02T03:23:11;6.47;;;2.40;;
79212;SDS011;68639;52.380;9.822;2023-04-02T03:25:47;6.30;;;2.40;;
79212;SDS011;68639;52.380;9.822;2023-04-02T03:28:18;6.43;;;1.80;;
79212;SDS011;68639;52.380;9.822;2023-04-02T03:30:49;5.57;;;1.97;;
79212;SDS011;68639;52.380;9.822;2023-04-02T03:33:19;8.20;;;2.83;;
79212;SDS011;68639;52.380;9.822;2023-04-02T03:35:46;6.63;;;1.83;;
79212;SDS011;68639;52.380;9.822;2023-04-02T03:38:20;9.23;;;2.23;;
79212;SDS011;68639;52.380;9.822;2023-04-02T03:43:22;11.37;;;3.00;;
79212;SDS011;68639;52.380;9.822;2023-04-02T03:45:54;8.23;;;1.80;;
79212;SDS011;68639;52.380;9.822;2023-04-02T03:50:49;7.67;;;2.10;;
79212;SDS011;68639;52.380;9.822;2023-04-02T03:53:16;7.33;;;2.00;;
79212;SDS011;68639;52.380;9.822;2023-04-02T03:55:41;6.40;;;2.40;;
79212;SDS011;68639;52.380;9.822;2023-04-02T04:00:42;7.77;;;2.37;;
79212;SDS011;68639;52.380;9.822;2023-04-02T04:03:18;7.47;;;2.00;;
79212;SDS011;68639;52.380;9.822;2023-04-02T04:08:23;7.27;;;1.90;;
79212;SDS011;68639;52.380;9.822;2023-04-02T04:10:51;5.73;;;2.03;;
79212;SDS011;68639;52.380;9.822;2023-04-02T04:13:18;7.47;;;1.80;;
79212;SDS011;68639;52.380;9.822;2023-04-02T04:15:49;5.37;;;1.80;;
79212;SDS011;68639;52.380;9.822;2023-04-02T04:23:19;7.27;;;2.10;;
79212;SDS011;68639;52.380;9.822;2023-04-02T04:25:55;9.73;;;2.30;;
79212;SDS011;68639;52.380;9.822;2023-04-02T04:31:03;7.67;;;2.07;;
79212;SDS011;68639;52.380;9.822;2023-04-02T04:33:33;6.33;;;2.13;;
79212;SDS011;68639;52.380;9.822;2023-04-02T04:36:04;7.67;;;1.60;;
79212;SDS011;68639;52.380;9.822;2023-04-02T04:38:36;9.20;;;1.50;;
79212;SDS011;68639;52.380;9.822;2023-04-02T04:41:04;6.80;;;1.70;;
79212;SDS011;68639;52.380;9.822;2023-04-02T04:43:39;8.77;;;1.60;;
79212;SDS011;68639;52.380;9.822;2023-04-02T04:46:07;9.23;;;1.93;;
79212;SDS011;68639;52.380;9.822;2023-04-02T04:51:09;5.57;;;1.60;;
79212;SDS011;68639;52.380;9.822;2023-04-02T04:53:45;6.70;;;1.50;;
79212;SDS011;68639;52.380;9.822;2023-04-02T04:56:11;7.57;;;1.70;;
79212;SDS011;68639;52.380;9.822;2023-04-02T04:58:41;6.63;;;1.63;;
79212;SDS011;68639;52.380;9.822;2023-04-02T05:01:16;5.07;;;1.60;;
79212;SDS011;68639;52.380;9.822;2023-04-02T05:06:17;5.47;;;1.63;;
79212;SDS011;68639;52.380;9.822;2023-04-02T05:08:44;6.33;;;2.00;;
79212;SDS011;68639;52.380;9.822;2023-04-02T05:11:30;7.00;;;1.57;;
79212;SDS011;68639;52.380;9.822;2023-04-02T05:13:58;4.13;;;1.70;;
79212;SDS011;68639;52.380;9.822;2023-04-02T05:16:25;4.07;;;1.50;;
79212;SDS011;68639;52.380;9.822;2023-04-02T05:18:58;5.03;;;1.70;;
79212;SDS011;68639;52.380;9.822;2023-04-02T05:21:27;7.43;;;2.20;;
79212;SDS011;68639;52.380;9.822;2023-04-02T05:26:42;7.27;;;2.17;;
79212;SDS011;68639;52.380;9.822;2023-04-02T05:29:31;5.93;;;1.80;;
79212;SDS011;68639;52.380;9.822;2023-04-02T05:31:57;7.27;;;1.63;;
79212;SDS011;68639;52.380;9.822;2023-04-02T05:34:26;8.87;;;2.13;;
79212;SDS011;68639;52.380;9.822;2023-04-02T05:36:52;7.60;;;1.70;;
79212;SDS011;68639;52.380;9.822;2023-04-02T05:39:22;8.37;;;1.87;;
79212;SDS011;68639;52.380;9.822;2023-04-02T05:41:47;4.50;;;1.40;;
79212;SDS011;68639;52.380;9.822;2023-04-02T05:47:20;6.40;;;1.63;;
79212;SDS011;68639;52.380;9.822;2023-04-02T05:49:52;5.23;;;1.60;;
79212;SDS011;68639;52.380;9.822;2023-04-02T05:52:30;12.10;;;1.77;;
79212;SDS011;68639;52.380;9.822;2023-04-02T05:55:22;10.07;;;1.60;;
79212;SDS011;68639;52.380;9.822;2023-04-02T05:57:52;6.70;;;1.80;;
79212;SDS011;68639;52.380;9.822;2023-04-02T06:00:21;5.43;;;1.47;;
79212;SDS011;68639;52.380;9.822;2023-04-02T06:02:50;8.63;;;1.67;;
79212;SDS011;68639;52.380;9.822;2023-04-02T06:05:27;4.40;;;1.37;;
79212;SDS011;68639;52.380;9.822;2023-04-02T06:07:54;6.43;;;1.70;;
79212;SDS011;68639;52.380;9.822;2023-04-02T06:10:32;6.40;;;1.63;;
79212;SDS011;68639;52.380;9.822;2023-04-02T06:12:59;5.93;;;1.60;;
79212;SDS011;68639;52.380;9.822;2023-04-02T06:15:28;5.17;;;1.17;;
79212;SDS011;68639;52.380;9.822;2023-04-02T06:20:45;9.10;;;1.67;;
79212;SDS011;68639;52.380;9.822;2023-04-02T06:25:39;4.53;;;1.27;;
79212;SDS011;68639;52.380;9.822;2023-04-02T06:28:07;4.70;;;1.40;;
79212;SDS011;68639;52.380;9.822;2023-04-02T06:30:37;6.67;;;1.97;;
79212;SDS011;68639;52.380;9.822;2023-04-02T06:33:03;6.67;;;2.40;;
79212;SDS011;68639;52.380;9.822;2023-04-02T06:35:28;4.83;;;1.80;;
79212;SDS011;68639;52.380;9.822;2023-04-02T06:37:54;8.87;;;2.47;;
79212;SDS011;68639;52.380;9.822;2023-04-02T06:42:49;2.93;;;1.47;;
79212;SDS011;68639;52.380;9.822;2023-04-02T06:45:23;4.60;;;1.93;;
79212;SDS011;68639;52.380;9.822;2023-04-02T06:47:49;4.43;;;1.73;;
79212;SDS011;68639;52.380;9.822;2023-04-02T06:52:49;4.90;;;1.87;;
79212;SDS011;68639;52.380;9.822;2023-04-02T06:57:59;5.87;;;1.70;;
79212;SDS011;68639;52.380;9.822;2023-04-02T07:02:58;8.53;;;2.07;;
79212;SDS011;68639;52.380;9.822;2023-04-02T07:05:25;7.20;;;1.90;;
79212;SDS011;68639;52.380;9.822;2023-04-02T07:07:51;6.20;;;1.93;;
79212;SDS011;68639;52.380;9.822;2023-04-02T07:10:16;8.23;;;2.10;;
79212;SDS011;68639;52.380;9.822;2023-04-02T07:12:43;7.53;;;2.07;;
79212;SDS011;68639;52.380;9.822;2023-04-02T07:15:10;8.37;;;3.00;;
79212;SDS011;68639;52.380;9.822;2023-04-02T07:17:38;10.67;;;3.20;;
79212;SDS011;68639;52.380;9.822;2023-04-02T07:20:03;8.47;;;2.17;;
79212;SDS011;68639;52.380;9.822;2023-04-02T07:22:29;8.07;;;1.83;;
79212;SDS011;68639;52.380;9.822;2023-04-02T07:24:54;5.97;;;1.50;;
79212;SDS011;68639;52.380;9.822;2023-04-02T07:27:19;3.47;;;1.30;;
79212;SDS011;68639;52.380;9.822;2023-04-02T07:29:44;6.20;;;1.77;;
79212;SDS011;68639;52.380;9.822;2023-04-02T07:32:10;4.03;;;1.63;;
79212;SDS011;68639;52.380;9.822;2023-04-02T07:34:36;6.57;;;1.80;;
79212;SDS011;68639;52.380;9.822;2023-04-02T07:37:01;5.63;;;1.80;;
79212;SDS011;68639;52.380;9.822;2023-04-02T07:39:27;4.80;;;1.83;;
79212;SDS011;68639;52.380;9.822;2023-04-02T07:41:53;3.73;;;1.53;;
79212;SDS011;68639;52.380;9.822;2023-04-02T07:44:18;6.50;;;1.83;;
79212;SDS011;68639;52.380;9.822;2023-04-02T07:46:43;8.00;;;1.80;;
79212;SDS011;68639;52.380;9.822;2023-04-02T07:49:09;8.63;;;1.70;;
79212;SDS011;68639;52.380;9.822;2023-04-02T07:51:34;6.73;;;1.67;;
79212;SDS011;68639;52.380;9.822;2023-04-02T07:53:59;5.07;;;1.73;;
79212;SDS011;68639;52.380;9.822;2023-04-02T07:56:25;4.70;;;1.70;;
79212;SDS011;68639;52.380;9.822;2023-04-02T07:58:51;5.03;;;1.57;;
79212;SDS011;68639;52.380;9.822;2023-04-02T08:01:20;4.93;;;1.83;;
79212;SDS011;68639;52.380;9.822;2023-04-02T08:03:48;4.33;;;1.70;;
79212;SDS011;68639;52.380;9.822;2023-04-02T08:06:13;7.50;;;1.77;;
79212;SDS011;68639;52.380;9.822;2023-04-02T08:08:38;4.50;;;1.40;;
79212;SDS011;68639;52.380;9.822;2023-04-02T08:11:04;4.17;;;1.60;;
79212;SDS011;68639;52.380;9.822;2023-04-02T08:13:29;6.30;;;2.10;;
79212;SDS011;68639;52.380;9.822;2023-04-02T08:15:57;5.20;;;1.70;;
79212;SDS011;68639;52.380;9.822;2023-04-02T08:18:22;5.63;;;1.70;;
79212;SDS011;68639;52.380;9.822;2023-04-02T08:20:47;5.80;;;1.30;;
79212;SDS011;68639;52.380;9.822;2023-04-02T08:23:13;5.30;;;1.50;;
79212;SDS011;68639;52.380;9.822;2023-04-02T08:25:41;5.60;;;1.83;;
79212;SDS011;68639;52.380;9.822;2023-04-02T08:28:06;9.37;;;1.53;;
79212;SDS011;68639;52.380;9.822;2023-04-02T08:30:31;5.23;;;1.23;;
79212;SDS011;68639;52.380;9.822;2023-04-02T08:32:56;6.00;;;1.63;;
79212;SDS011;68639;52.380;9.822;2023-04-02T08:35:22;7.27;;;1.60;;
79212;SDS011;68639;52.380;9.822;2023-04-02T08:37:47;6.10;;;1.53;;
79212;SDS011;68639;52.380;9.822;2023-04-02T08:40:24;5.70;;;1.70;;
79212;SDS011;68639;52.380;9.822;2023-04-02T08:48:15;7.77;;;1.60;;
79212;SDS011;68639;52.380;9.822;2023-04-02T08:50:41;6.17;;;1.83;;
79212;SDS011;68639;52.380;9.822;2023-04-02T08:53:24;3.97;;;1.20;;
79212;SDS011;68639;52.380;9.822;2023-04-02T09:00:46;7.77;;;1.80;;
79212;SDS011;68639;52.380;9.822;2023-04-02T09:05:38;4.97;;;1.40;;
79212;SDS011;68639;52.380;9.822;2023-04-02T09:08:08;6.13;;;1.63;;
79212;SDS011;68639;52.380;9.822;2023-04-02T09:10:40;3.00;;;1.50;;
79212;SDS011;68639;52.380;9.822;2023-04-02T09:13:08;5.33;;;1.70;;
79212;SDS011;68639;52.380;9.822;2023-04-02T09:15:37;5.73;;;1.50;;
79212;SDS011;68639;52.380;9.822;2023-04-02T09:18:12;6.27;;;1.90;;
79212;SDS011;68639;52.380;9.822;2023-04-02T09:20:37;5.27;;;1.50;;
79212;SDS011;68639;52.380;9.822;2023-04-02T09:23:03;8.17;;;1.70;;
79212;SDS011;68639;52.380;9.822;2023-04-02T09:25:29;4.37;;;1.30;;
79212;SDS011;68639;52.380;9.822;2023-04-02T09:27:57;4.77;;;1.60;;
79212;SDS011;68639;52.380;9.822;2023-04-02T09:35:34;5.37;;;1.60;;
79212;SDS011;68639;52.380;9.822;2023-04-02T09:40:45;5.43;;;1.30;;
79212;SDS011;68639;52.380;9.822;2023-04-02T09:43:15;5.33;;;1.50;;
79212;SDS011;68639;52.380;9.822;2023-04-02T09:45:41;5.67;;;1.60;;
79212;SDS011;68639;52.380;9.822;2023-04-02T09:48:20;6.10;;;1.67;;
79212;SDS011;68639;52.380;9.822;2023-04-02T09:50:46;4.43;;;1.27;;
79212;SDS011;68639;52.380;9.822;2023-04-02T09:53:32;7.30;;;1.67;;
79212;SDS011;68639;52.380;9.822;2023-04-02T09:56:06;4.00;;;1.50;;
79212;SDS011;68639;52.380;9.822;2023-04-02T09:58:31;7.03;;;1.50;;
79212;SDS011;68639;52.380;9.822;2023-04-02T10:00:56;6.70;;;1.47;;
79212;SDS011;68639;52.380;9.822;2023-04-02T10:03:25;6.97;;;1.80;;
79212;SDS011;68639;52.380;9.822;2023-04-02T10:08:45;4.73;;;1.47;;
79212;SDS011;68639;52.380;9.822;2023-04-02T10:11:12;3.57;;;1.20;;
79212;SDS011;68639;52.380;9.822;2023-04-02T10:16:21;5.67;;;1.33;;
79212;SDS011;68639;52.380;9.822;2023-04-02T10:18:57;5.83;;;1.67;;
79212;SDS011;68639;52.380;9.822;2023-04-02T10:21:24;6.90;;;1.53;;
79212;SDS011;68639;52.380;9.822;2023-04-02T10:23:51;3.83;;;1.47;;
79212;SDS011;68639;52.380;9.822;2023-04-02T10:31:33;4.57;;;1.73;;
79212;SDS011;68639;52.380;9.822;2023-04-02T10:34:04;5.13;;;1.87;;
79212;SDS011;68639;52.380;9.822;2023-04-02T10:39:52;4.47;;;1.40;;
79212;SDS011;68639;52.380;9.822;2023-04-02T10:44:38;6.40;;;1.70;;
79212;SDS011;68639;52.380;9.822;2023-04-02T10:49:46;4.80;;;2.03;;
79212;SDS011;68639;52.380;9.822;2023-04-02T10:52:22;5.47;;;2.30;;
79212;SDS011;68639;52.380;9.822;2023-04-02T10:54:48;6.53;;;2.37;;
79212;SDS011;68639;52.380;9.822;2023-04-02T10:57:19;7.23;;;1.70;;
79212;SDS011;68639;52.380;9.822;2023-04-02T10:59:48;7.77;;;1.87;;
79212;SDS011;68639;52.380;9.822;2023-04-02T11:04:48;6.07;;;1.60;;
79212;SDS011;68639;52.380;9.822;2023-04-02T11:07:17;3.87;;;1.30;;
79212;SDS011;68639;52.380;9.822;2023-04-02T11:09:44;5.33;;;1.40;;
79212;SDS011;68639;52.380;9.822;2023-04-02T11:12:46;5.53;;;1.50;;
79212;SDS011;68639;52.380;9.822;2023-04-02T11:15:05;3.10;;;1.40;;
79212;SDS011;68639;52.380;9.822;2023-04-02T11:17:37;4.43;;;1.33;;
79212;SDS011;68639;52.380;9.822;2023-04-02T11:23:02;4.10;;;1.40;;
79212;SDS011;68639;52.380;9.822;2023-04-02T11:25:28;4.20;;;1.80;;
79212;SDS011;68639;52.380;9.822;2023-04-02T11:27:53;5.60;;;1.60;;
79212;SDS011;68639;52.380;9.822;2023-04-02T11:30:20;5.20;;;1.53;;
79212;SDS011;68639;52.380;9.822;2023-04-02T11:32:47;4.53;;;1.70;;
79212;SDS011;68639;52.380;9.822;2023-04-02T11:37:49;6.77;;;1.60;;
79212;SDS011;68639;52.380;9.822;2023-04-02T11:42:40;6.87;;;1.27;;
79212;SDS011;68639;52.380;9.822;2023-04-02T11:55:32;9.20;;;1.30;;
79212;SDS011;68639;52.380;9.822;2023-04-02T12:00:37;5.03;;;1.37;;
79212;SDS011;68639;52.380;9.822;2023-04-02T12:11:06;5.47;;;1.20;;
79212;SDS011;68639;52.380;9.822;2023-04-02T12:16:12;5.17;;;1.10;;
79212;SDS011;68639;52.380;9.822;2023-04-02T12:18:45;7.57;;;1.30;;
79212;SDS011;68639;52.380;9.822;2023-04-02T12:21:17;3.57;;;1.17;;
79212;SDS011;68639;52.380;9.822;2023-04-02T12:23:46;5.87;;;1.37;;
79212;SDS011;68639;52.380;9.822;2023-04-02T12:26:26;3.53;;;1.07;;
79212;SDS011;68639;52.380;9.822;2023-04-02T12:28:54;4.47;;;1.70;;
79212;SDS011;68639;52.380;9.822;2023-04-02T12:31:20;5.20;;;1.10;;
79212;SDS011;68639;52.380;9.822;2023-04-02T12:33:48;5.10;;;1.33;;
79212;SDS011;68639;52.380;9.822;2023-04-02T12:36:20;6.03;;;1.50;;
79212;SDS011;68639;52.380;9.822;2023-04-02T12:38:49;3.90;;;1.10;;
79212;SDS011;68639;52.380;9.822;2023-04-02T12:41:22;4.00;;;1.13;;
79212;SDS011;68639;52.380;9.822;2023-04-02T12:43:55;6.77;;;1.50;;
79212;SDS011;68639;52.380;9.822;2023-04-02T12:46:20;3.97;;;0.80;;
79212;SDS011;68639;52.380;9.822;2023-04-02T12:48:48;3.20;;;0.90;;
79212;SDS011;68639;52.380;9.822;2023-04-02T12:51:13;4.43;;;1.07;;
79212;SDS011;68639;52.380;9.822;2023-04-02T12:53:39;5.00;;;1.30;;
79212;SDS011;68639;52.380;9.822;2023-04-02T12:56:04;4.00;;;0.90;;
79212;SDS011;68639;52.380;9.822;2023-04-02T13:06:30;4.53;;;0.93;;
79212;SDS011;68639;52.380;9.822;2023-04-02T13:08:56;3.83;;;0.80;;
79212;SDS011;68639;52.380;9.822;2023-04-02T13:11:21;4.00;;;0.80;;
79212;SDS011;68639;52.380;9.822;2023-04-02T13:13:47;4.80;;;1.27;;
79212;SDS011;68639;52.380;9.822;2023-04-02T13:18:42;3.63;;;1.00;;
79212;SDS011;68639;52.380;9.822;2023-04-02T13:21:23;3.50;;;1.07;;
79212;SDS011;68639;52.380;9.822;2023-04-02T13:23:51;4.43;;;1.00;;
79212;SDS011;68639;52.380;9.822;2023-04-02T13:26:20;4.13;;;1.10;;
79212;SDS011;68639;52.380;9.822;2023-04-02T13:31:23;3.73;;;1.20;;
79212;SDS011;68639;52.380;9.822;2023-04-02T13:33:48;4.57;;;1.30;;
79212;SDS011;68639;52.380;9.822;2023-04-02T13:36:13;3.70;;;1.10;;
79212;SDS011;68639;52.380;9.822;2023-04-02T13:38:39;5.83;;;1.23;;
79212;SDS011;68639;52.380;9.822;2023-04-02T13:41:04;3.43;;;1.03;;
79212;SDS011;68639;52.380;9.822;2023-04-02T13:43:29;5.43;;;1.10;;
79212;SDS011;68639;52.380;9.822;2023-04-02T13:45:55;3.03;;;0.90;;
79212;SDS011;68639;52.380;9.822;2023-04-02T13:48:22;4.40;;;1.00;;
79212;SDS011;68639;52.380;9.822;2023-04-02T13:50:50;4.53;;;1.20;;
79212;SDS011;68639;52.380;9.822;2023-04-02T13:53:28;4.80;;;1.10;;
79212;SDS011;68639;52.380;9.822;2023-04-02T13:55:54;3.43;;;1.00;;
79212;SDS011;68639;52.380;9.822;2023-04-02T13:58:20;3.17;;;1.00;;
79212;SDS011;68639;52.380;9.822;2023-04-02T14:00:46;5.13;;;0.80;;
79212;SDS011;68639;52.380;9.822;2023-04-02T14:03:13;4.67;;;0.90;;
79212;SDS011;68639;52.380;9.822;2023-04-02T14:10:52;6.53;;;1.00;;
79212;SDS011;68639;52.380;9.822;2023-04-02T14:20:45;3.87;;;0.90;;
79212;SDS011;68639;52.380;9.822;2023-04-02T14:28:39;5.53;;;1.33;;
79212;SDS011;68639;52.380;9.822;2023-04-02T14:38:57;3.10;;;0.97;;
79212;SDS011;68639;52.380;9.822;2023-04-02T14:41:28;5.67;;;1.47;;
79212;SDS011;68639;52.380;9.822;2023-04-02T14:43:58;3.00;;;0.90;;
79212;SDS011;68639;52.380;9.822;2023-04-02T14:46:25;4.27;;;1.40;;
79212;SDS011;68639;52.380;9.822;2023-04-02T14:51:38;3.40;;;0.90;;
79212;SDS011;68639;52.380;9.822;2023-04-02T14:56:38;5.73;;;0.90;;
79212;SDS011;68639;52.380;9.822;2023-04-02T14:59:07;1.90;;;0.90;;
79212;SDS011;68639;52.380;9.822;2023-04-02T15:01:39;2.90;;;0.90;;
79212;SDS011;68639;52.380;9.822;2023-04-02T15:04:51;5.67;;;0.80;;
79212;SDS011;68639;52.380;9.822;2023-04-02T15:06:52;2.13;;;0.90;;
79212;SDS011;68639;52.380;9.822;2023-04-02T15:09:27;3.37;;;0.90;;
79212;SDS011;68639;52.380;9.822;2023-04-02T15:11:56;4.87;;;1.20;;
79212;SDS011;68639;52.380;9.822;2023-04-02T15:14:24;4.10;;;1.13;;
79212;SDS011;68639;52.380;9.822;2023-04-02T15:16:52;3.50;;;0.90;;
79212;SDS011;68639;52.380;9.822;2023-04-02T15:19:17;3.20;;;0.90;;
79212;SDS011;68639;52.380;9.822;2023-04-02T15:29:23;4.60;;;1.10;;
79212;SDS011;68639;52.380;9.822;2023-04-02T15:31:52;4.50;;;1.00;;
79212;SDS011;68639;52.380;9.822;2023-04-02T15:36:58;4.77;;;1.00;;
79212;SDS011;68639;52.380;9.822;2023-04-02T15:44:41;3.40;;;0.90;;
79212;SDS011;68639;52.380;9.822;2023-04-02T15:47:17;6.53;;;1.10;;
79212;SDS011;68639;52.380;9.822;2023-04-02T15:50:20;5.47;;;1.50;;
79212;SDS011;68639;52.380;9.822;2023-04-02T15:52:53;6.27;;;1.40;;
79212;SDS011;68639;52.380;9.822;2023-04-02T15:55:24;8.00;;;1.10;;
79212;SDS011;68639;52.380;9.822;2023-04-02T16:00:25;5.13;;;1.60;;
79212;SDS011;68639;52.380;9.822;2023-04-02T16:08:20;3.97;;;0.80;;
79212;SDS011;68639;52.380;9.822;2023-04-02T16:10:48;4.17;;;1.27;;
79212;SDS011;68639;52.380;9.822;2023-04-02T16:13:18;4.17;;;0.97;;
79212;SDS011;68639;52.380;9.822;2023-04-02T16:15:54;4.57;;;1.03;;
79212;SDS011;68639;52.380;9.822;2023-04-02T16:18:28;4.63;;;1.20;;
79212;SDS011;68639;52.380;9.822;2023-04-02T16:20:54;5.17;;;1.10;;
79212;SDS011;68639;52.380;9.822;2023-04-02T16:23:56;8.17;;;1.20;;
79212;SDS011;68639;52.380;9.822;2023-04-02T16:31:45;4.60;;;1.10;;
79212;SDS011;68639;52.380;9.822;2023-04-02T16:36:58;4.47;;;0.93;;
79212;SDS011;68639;52.380;9.822;2023-04-02T16:42:08;6.00;;;0.93;;
79212;SDS011;68639;52.380;9.822;2023-04-02T16:47:24;6.60;;;1.50;;
79212;SDS011;68639;52.380;9.822;2023-04-02T16:50:11;3.70;;;1.00;;
79212;SDS011;68639;52.380;9.822;2023-04-02T16:53:03;5.90;;;1.17;;
79212;SDS011;68639;52.380;9.822;2023-04-02T16:58:11;4.73;;;1.40;;
79212;SDS011;68639;52.380;9.822;2023-04-02T17:00:43;5.37;;;1.40;;
79212;SDS011;68639;52.380;9.822;2023-04-02T17:03:17;4.20;;;1.20;;
79212;SDS011;68639;52.380;9.822;2023-04-02T17:10:46;2.97;;;0.97;;
79212;SDS011;68639;52.380;9.822;2023-04-02T17:15:39;6.40;;;1.63;;
79212;SDS011;68639;52.380;9.822;2023-04-02T17:18:18;4.80;;;1.33;;
79212;SDS011;68639;52.380;9.822;2023-04-02T17:20:45;4.73;;;1.30;;
79212;SDS011;68639;52.380;9.822;2023-04-02T17:23:13;7.10;;;1.70;;
79212;SDS011;68639;52.380;9.822;2023-04-02T17:25:44;4.83;;;1.43;;
79212;SDS011;68639;52.380;9.822;2023-04-02T17:28:11;5.10;;;1.23;;
79212;SDS011;68639;52.380;9.822;2023-04-02T17:33:06;9.50;;;1.30;;
79212;SDS011;68639;52.380;9.822;2023-04-02T17:40:49;3.77;;;1.00;;
79212;SDS011;68639;52.380;9.822;2023-04-02T17:45:50;5.53;;;1.37;;
79212;SDS011;68639;52.380;9.822;2023-04-02T17:54:31;8.03;;;1.87;;
79212;SDS011;68639;52.380;9.822;2023-04-02T18:06:13;5.10;;;1.50;;
79212;SDS011;68639;52.380;9.822;2023-04-02T18:19:21;6.23;;;1.90;;
79212;SDS011;68639;52.380;9.822;2023-04-02T18:21:52;4.90;;;1.10;;
79212;SDS011;68639;52.380;9.822;2023-04-02T18:24:26;5.33;;;1.30;;
79212;SDS011;68639;52.380;9.822;2023-04-02T18:34:42;6.27;;;1.40;;
79212;SDS011;68639;52.380;9.822;2023-04-02T18:37:22;4.93;;;1.50;;
79212;SDS011;68639;52.380;9.822;2023-04-02T18:50:15;5.57;;;1.33;;
79212;SDS011;68639;52.380;9.822;2023-04-02T18:52:42;8.63;;;2.37;;
79212;SDS011;68639;52.380;9.822;2023-04-02T18:55:16;6.07;;;1.80;;
79212;SDS011;68639;52.380;9.822;2023-04-02T18:57:44;5.00;;;1.43;;
79212;SDS011;68639;52.380;9.822;2023-04-02T19:02:50;8.57;;;1.53;;
79212;SDS011;68639;52.380;9.822;2023-04-02T19:08:03;4.23;;;1.50;;
79212;SDS011;68639;52.380;9.822;2023-04-02T19:12:55;4.17;;;1.27;;
79212;SDS011;68639;52.380;9.822;2023-04-02T19:15:20;7.67;;;1.53;;
79212;SDS011;68639;52.380;9.822;2023-04-02T19:18:07;7.53;;;1.67;;
79212;SDS011;68639;52.380;9.822;2023-04-02T19:37:50;6.80;;;1.90;;
79212;SDS011;68639;52.380;9.822;2023-04-02T19:40:24;8.70;;;1.63;;
79212;SDS011;68639;52.380;9.822;2023-04-02T19:42:53;8.73;;;2.37;;
79212;SDS011;68639;52.380;9.822;2023-04-02T19:47:43;9.80;;;1.80;;
79212;SDS011;68639;52.380;9.822;2023-04-02T19:50:09;8.17;;;1.87;;
79212;SDS011;68639;52.380;9.822;2023-04-02T19:52:35;6.47;;;1.97;;
79212;SDS011;68639;52.380;9.822;2023-04-02T19:55:00;8.00;;;1.97;;
79212;SDS011;68639;52.380;9.822;2023-04-02T19:57:25;3.90;;;1.60;;
79212;SDS011;68639;52.380;9.822;2023-04-02T19:59:52;6.93;;;1.70;;
79212;SDS011;68639;52.380;9.822;2023-04-02T20:02:17;5.93;;;1.57;;
79212;SDS011;68639;52.380;9.822;2023-04-02T20:04:42;7.63;;;1.70;;
79212;SDS011;68639;52.380;9.822;2023-04-02T20:07:07;8.13;;;1.83;;
79212;SDS011;68639;52.380;9.822;2023-04-02T20:09:33;7.37;;;1.47;;
79212;SDS011;68639;52.380;9.822;2023-04-02T20:11:58;5.30;;;1.47;;
79212;SDS011;68639;52.380;9.822;2023-04-02T20:14:23;6.97;;;1.70;;
79212;SDS011;68639;52.380;9.822;2023-04-02T20:16:48;4.73;;;1.30;;
79212;SDS011;68639;52.380;9.822;2023-04-02T20:19:14;4.73;;;1.40;;
79212;SDS011;68639;52.380;9.822;2023-04-02T20:21:39;6.73;;;1.60;;
79212;SDS011;68639;52.380;9.822;2023-04-02T20:24:05;6.40;;;1.63;;
79212;SDS011;68639;52.380;9.822;2023-04-02T20:26:30;4.40;;;1.27;;
79212;SDS011;68639;52.380;9.822;2023-04-02T20:28:56;4.73;;;1.20;;
79212;SDS011;68639;52.380;9.822;2023-04-02T20:31:21;9.67;;;1.67;;
79212;SDS011;68639;52.380;9.822;2023-04-02T20:33:46;5.47;;;1.40;;
79212;SDS011;68639;52.380;9.822;2023-04-02T20:36:12;3.87;;;1.43;;